Time;durP1;ratioP1;P1;durP2;ratioP2;P2;SDS_P1;SDS_P2;PMS_P1;PMS_P2;Temp;Humidity;BMP_temperature;BMP_pressure;BME280_temperature;BME280_humidity;BME280_pressure;Samples;Min_cycle;Max_cycle;Signal;HPM_P1;HPM_P2
2023/03/17 00:00:45;;;;;;;;;;;6.90;99.90;;;;;;5088179;28;19924;-77
2023/03/17 00:03:24;;;;;;;;;;;6.90;99.90;;;;;;5089955;28;19924;-77
2023/03/17 00:05:52;;;;;;;;;;;6.90;99.90;;;;;;5087556;28;19932;-77
2023/03/17 00:08:25;;;;;;;;;;;6.90;99.90;;;;;;5089549;28;19924;-77
2023/03/17 00:10:51;;;;;;;;;;;6.90;99.90;;;;;;5070082;28;19924;-77
2023/03/17 00:13:16;;;;;;;;;;;6.90;99.90;;;;;;5088087;28;19931;-77
2023/03/17 00:15:43;;;;;;;;;;;6.90;99.90;;;;;;5086201;28;19960;-77
2023/03/17 00:18:10;;;;;;;;;;;7.00;99.90;;;;;;5081527;28;19923;-77
2023/03/17 00:20:36;;;;;;;;;;;7.00;99.90;;;;;;5090119;28;19924;-77
2023/03/17 00:23:03;;;;;;;;;;;6.90;99.90;;;;;;5092508;28;19951;-77
2023/03/17 00:25:30;;;;;;;;;;;7.00;99.90;;;;;;5092978;28;19966;-77
2023/03/17 00:27:57;;;;;;;;;;;7.00;99.90;;;;;;5091426;28;20321;-77
2023/03/17 00:30:23;;;;;;;;;;;7.00;99.90;;;;;;5093188;28;19931;-77
2023/03/17 00:32:50;;;;;;;;;;;7.00;99.90;;;;;;5092916;28;19928;-77
2023/03/17 00:35:16;;;;;;;;;;;7.00;99.90;;;;;;5093179;28;19928;-77
2023/03/17 00:37:41;;;;;;;;;;;7.00;99.90;;;;;;5093981;28;19933;-77
2023/03/17 00:40:19;;;;;;;;;;;7.00;99.90;;;;;;5092882;28;20339;-78
2023/03/17 00:42:45;;;;;;;;;;;7.00;99.90;;;;;;5093166;28;19924;-77
2023/03/17 00:45:11;;;;;;;;;;;7.00;99.90;;;;;;5090890;28;19924;-77
2023/03/17 00:47:37;;;;;;;;;;;7.00;99.90;;;;;;5093665;28;19931;-77
2023/03/17 00:50:03;;;;;;;;;;;7.00;99.90;;;;;;5075391;28;19928;-77
2023/03/17 00:52:29;;;;;;;;;;;7.00;99.90;;;;;;5093412;28;19931;-77
2023/03/17 00:54:55;;;;;;;;;;;7.00;99.90;;;;;;5080286;28;19924;-77
2023/03/17 00:57:21;;;;;;;;;;;7.00;99.90;;;;;;5093082;28;19928;-77
2023/03/17 00:59:47;;;;;;;;;;;7.00;99.90;;;;;;5093163;28;19931;-77
2023/03/17 01:02:13;;;;;;;;;;;7.00;99.90;;;;;;5093101;28;19924;-77
2023/03/17 01:04:39;;;;;;;;;;;7.00;99.90;;;;;;5093255;28;20035;-77
2023/03/17 01:07:05;;;;;;;;;;;7.00;99.90;;;;;;5094047;28;20382;-77
2023/03/17 01:09:32;;;;;;;;;;;7.00;99.90;;;;;;5093270;28;20022;-77
2023/03/17 01:11:58;;;;;;;;;;;6.90;99.90;;;;;;5093884;28;19928;-77
2023/03/17 01:14:24;;;;;;;;;;;6.90;99.90;;;;;;5081727;28;19924;-77
2023/03/17 01:16:51;;;;;;;;;;;6.90;99.90;;;;;;5094312;28;19984;-77
2023/03/17 01:19:17;;;;;;;;;;;6.90;99.90;;;;;;5094475;28;19931;-77
2023/03/17 01:21:44;;;;;;;;;;;6.90;99.90;;;;;;5095612;28;20057;-77
2023/03/17 01:24:10;;;;;;;;;;;6.90;99.90;;;;;;5073638;28;19932;-77
2023/03/17 01:26:36;;;;;;;;;;;6.90;99.90;;;;;;5090982;28;19931;-77
2023/03/17 01:29:03;;;;;;;;;;;6.90;99.90;;;;;;5073631;28;19924;-77
2023/03/17 01:31:29;;;;;;;;;;;6.80;99.90;;;;;;5072376;28;19931;-77
2023/03/17 01:33:54;;;;;;;;;;;6.90;99.90;;;;;;5089466;28;19924;-77
2023/03/17 01:36:20;;;;;;;;;;;6.80;99.90;;;;;;5091852;28;19924;-77
2023/03/17 01:38:48;;;;;;;;;;;6.90;99.90;;;;;;5090525;28;20291;-77
2023/03/17 01:41:13;;;;;;;;;;;6.80;99.90;;;;;;5090199;28;19935;-77
2023/03/17 01:43:39;;;;;;;;;;;6.80;99.90;;;;;;5089844;28;20416;-76
2023/03/17 01:46:17;;;;;;;;;;;6.80;99.90;;;;;;5090406;28;19932;-77
2023/03/17 01:49:04;;;;;;;;;;;6.80;99.90;;;;;;5090381;28;19924;-77
2023/03/17 01:51:48;;;;;;;;;;;6.80;99.90;;;;;;5090452;28;19924;-77
2023/03/17 01:54:17;;;;;;;;;;;6.80;99.90;;;;;;5090759;28;19981;-77
2023/03/17 01:56:44;;;;;;;;;;;6.80;99.90;;;;;;5093676;28;19932;-77
2023/03/17 01:59:12;;;;;;;;;;;6.80;99.90;;;;;;5091474;28;19928;-77
2023/03/17 02:01:41;;;;;;;;;;;6.80;99.90;;;;;;5091453;28;20354;-77
2023/03/17 02:04:07;;;;;;;;;;;6.80;99.90;;;;;;5091907;28;19932;-77
2023/03/17 02:06:33;;;;;;;;;;;6.80;99.90;;;;;;5091635;28;19932;-77
2023/03/17 02:08:59;;;;;;;;;;;6.80;99.90;;;;;;5089405;28;19932;-77
2023/03/17 02:11:25;;;;;;;;;;;6.80;99.90;;;;;;5120557;27;20301;-77
2023/03/17 02:13:50;;;;;;;;;;;6.70;99.90;;;;;;5089268;28;19925;-77
2023/03/17 02:16:16;;;;;;;;;;;6.80;99.90;;;;;;5083810;28;19935;-77
2023/03/17 02:18:42;;;;;;;;;;;6.80;99.90;;;;;;5092563;28;19924;-77
2023/03/17 02:21:34;;;;;;;;;;;6.70;99.90;;;;;;5075352;28;20025;-77
2023/03/17 02:24:02;;;;;;;;;;;6.70;99.90;;;;;;5035442;28;19924;-77
2023/03/17 02:26:29;;;;;;;;;;;6.70;99.90;;;;;;5083426;28;19931;-77
2023/03/17 02:28:54;;;;;;;;;;;6.70;99.90;;;;;;5103611;28;19924;-77
2023/03/17 02:31:20;;;;;;;;;;;6.70;99.90;;;;;;5087971;28;19939;-77
2023/03/17 02:33:45;;;;;;;;;;;6.70;99.90;;;;;;5091057;28;19927;-77
2023/03/17 02:36:11;;;;;;;;;;;6.70;99.90;;;;;;5090569;28;19928;-77
2023/03/17 02:38:36;;;;;;;;;;;6.70;99.90;;;;;;5070952;28;19924;-77
2023/03/17 02:41:02;;;;;;;;;;;6.70;99.90;;;;;;5087646;28;19924;-77
2023/03/17 02:43:27;;;;;;;;;;;6.70;99.90;;;;;;5092510;28;19928;-77
2023/03/17 02:45:53;;;;;;;;;;;6.70;99.90;;;;;;5088922;28;19925;-77
2023/03/17 02:48:19;;;;;;;;;;;6.70;99.90;;;;;;5096241;28;19924;-77
2023/03/17 02:50:44;;;;;;;;;;;6.70;99.90;;;;;;5098880;28;19931;-77
2023/03/17 02:53:10;;;;;;;;;;;6.60;99.90;;;;;;5090391;28;19924;-77
2023/03/17 02:55:35;;;;;;;;;;;6.60;99.90;;;;;;5089238;28;20293;-77
2023/03/17 02:58:02;;;;;;;;;;;6.60;99.90;;;;;;5089293;28;19924;-77
2023/03/17 03:00:28;;;;;;;;;;;6.60;99.90;;;;;;5088942;28;20435;-77
2023/03/17 03:02:54;;;;;;;;;;;6.60;99.90;;;;;;5088983;28;20016;-77
2023/03/17 03:05:19;;;;;;;;;;;6.60;99.90;;;;;;5088110;28;19994;-77
2023/03/17 03:07:45;;;;;;;;;;;6.50;99.90;;;;;;5087769;28;20353;-77
2023/03/17 03:10:11;;;;;;;;;;;6.50;99.90;;;;;;5071253;28;19931;-77
2023/03/17 03:12:36;;;;;;;;;;;6.50;99.90;;;;;;5088190;28;19930;-77
2023/03/17 03:15:05;;;;;;;;;;;6.50;99.90;;;;;;5087009;28;20706;-77
2023/03/17 03:17:31;;;;;;;;;;;6.50;99.90;;;;;;5088231;28;20309;-77
2023/03/17 03:19:57;;;;;;;;;;;6.50;99.90;;;;;;5087936;28;19931;-77
2023/03/17 03:22:22;;;;;;;;;;;6.50;99.90;;;;;;5058877;28;19932;-77
2023/03/17 03:24:48;;;;;;;;;;;6.50;99.90;;;;;;5089999;28;20020;-77
2023/03/17 03:27:13;;;;;;;;;;;6.50;99.90;;;;;;5088921;28;20019;-77
2023/03/17 03:29:39;;;;;;;;;;;6.50;99.90;;;;;;5077931;28;20390;-77
2023/03/17 03:32:04;;;;;;;;;;;6.50;99.90;;;;;;5088841;28;19924;-77
2023/03/17 03:34:30;;;;;;;;;;;6.40;99.90;;;;;;5073082;28;20396;-77
2023/03/17 03:36:56;;;;;;;;;;;6.50;99.90;;;;;;5090468;28;19924;-77
2023/03/17 03:39:21;;;;;;;;;;;6.50;99.90;;;;;;5090610;28;19924;-77
2023/03/17 03:41:47;;;;;;;;;;;6.40;99.90;;;;;;5089144;28;19924;-77
2023/03/17 03:44:12;;;;;;;;;;;6.40;99.90;;;;;;5089032;28;19924;-77
2023/03/17 03:46:38;;;;;;;;;;;6.40;99.90;;;;;;5087952;28;20397;-77
2023/03/17 03:49:04;;;;;;;;;;;6.40;99.90;;;;;;5091001;28;20018;-77
2023/03/17 03:51:29;;;;;;;;;;;6.40;99.90;;;;;;5087841;28;20309;-77
2023/03/17 03:53:55;;;;;;;;;;;6.40;99.90;;;;;;5088641;28;19973;-77
2023/03/17 03:56:20;;;;;;;;;;;6.40;99.90;;;;;;5093273;28;20333;-77
2023/03/17 03:58:46;;;;;;;;;;;6.40;99.90;;;;;;5092770;28;19924;-77
2023/03/17 04:01:12;;;;;;;;;;;6.40;99.90;;;;;;5094637;28;20332;-77
2023/03/17 04:03:38;;;;;;;;;;;6.40;99.90;;;;;;5092043;28;20285;-77
2023/03/17 04:06:04;;;;;;;;;;;6.40;99.90;;;;;;5080443;28;19931;-77
2023/03/17 04:08:30;;;;;;;;;;;6.40;99.90;;;;;;5093571;28;20011;-77
2023/03/17 04:10:56;;;;;;;;;;;6.40;99.90;;;;;;5093550;28;19924;-77
2023/03/17 04:13:22;;;;;;;;;;;6.50;99.90;;;;;;5093831;28;19935;-77
2023/03/17 04:15:48;;;;;;;;;;;6.40;99.90;;;;;;5094639;28;19932;-76
2023/03/17 04:18:13;;;;;;;;;;;6.40;99.90;;;;;;5093792;28;20024;-77
2023/03/17 04:20:39;;;;;;;;;;;6.50;99.90;;;;;;5092858;28;19924;-77
2023/03/17 04:23:05;;;;;;;;;;;6.50;99.90;;;;;;5093237;28;19924;-77
2023/03/17 04:25:31;;;;;;;;;;;6.50;99.90;;;;;;5095100;28;20332;-76
2023/03/17 04:27:57;;;;;;;;;;;6.40;99.90;;;;;;5094246;28;19947;-77
2023/03/17 04:30:22;;;;;;;;;;;6.50;99.90;;;;;;5094967;28;19924;-77
2023/03/17 04:32:48;;;;;;;;;;;6.40;99.90;;;;;;5093343;28;20573;-77
2023/03/17 04:35:15;;;;;;;;;;;6.40;99.90;;;;;;5080643;28;19931;-77
2023/03/17 04:37:40;;;;;;;;;;;6.40;99.90;;;;;;5093224;28;20403;-77
2023/03/17 04:40:08;;;;;;;;;;;6.40;99.90;;;;;;5092499;28;19924;-77
2023/03/17 04:42:35;;;;;;;;;;;6.40;99.90;;;;;;5080913;28;19938;-77
2023/03/17 04:45:00;;;;;;;;;;;6.30;99.90;;;;;;5090636;28;19932;-77
2023/03/17 04:47:26;;;;;;;;;;;6.30;99.90;;;;;;5091406;28;19925;-77
2023/03/17 04:49:51;;;;;;;;;;;6.30;99.90;;;;;;5097532;28;19975;-77
2023/03/17 04:52:17;;;;;;;;;;;6.30;99.90;;;;;;5087564;28;20019;-77
2023/03/17 04:54:42;;;;;;;;;;;6.30;99.90;;;;;;5091040;28;20294;-77
2023/03/17 04:57:08;;;;;;;;;;;6.30;99.90;;;;;;5090664;28;19928;-76
2023/03/17 04:59:34;;;;;;;;;;;6.30;99.90;;;;;;5091211;28;19970;-77
2023/03/17 05:02:00;;;;;;;;;;;6.20;99.90;;;;;;5092360;28;19934;-76
2023/03/17 05:04:25;;;;;;;;;;;6.20;99.90;;;;;;5069110;28;20301;-76
2023/03/17 05:06:50;;;;;;;;;;;6.20;99.90;;;;;;5082495;28;19931;-75
2023/03/17 05:09:16;;;;;;;;;;;6.20;99.90;;;;;;5091261;28;19956;-76
2023/03/17 05:11:41;;;;;;;;;;;6.20;99.90;;;;;;5090959;28;20309;-76
2023/03/17 05:14:07;;;;;;;;;;;6.10;99.90;;;;;;5091044;28;20365;-75
2023/03/17 05:16:33;;;;;;;;;;;6.10;99.90;;;;;;5090459;28;20301;-75
2023/03/17 05:18:58;;;;;;;;;;;6.10;99.90;;;;;;5080293;28;19932;-75
2023/03/17 05:21:24;;;;;;;;;;;6.10;99.90;;;;;;5091015;28;19930;-75
2023/03/17 05:23:49;;;;;;;;;;;6.00;99.90;;;;;;5074753;28;19924;-75
2023/03/17 05:26:15;;;;;;;;;;;6.10;99.90;;;;;;5091434;28;19990;-75
2023/03/17 05:28:40;;;;;;;;;;;6.00;99.90;;;;;;5075854;28;20461;-75
2023/03/17 05:31:07;;;;;;;;;;;6.00;99.90;;;;;;5091209;28;20014;-75
2023/03/17 05:33:33;;;;;;;;;;;6.00;99.90;;;;;;5091879;28;20421;-75
2023/03/17 05:35:59;;;;;;;;;;;6.00;99.90;;;;;;5090730;28;19928;-76
2023/03/17 05:38:24;;;;;;;;;;;6.00;99.90;;;;;;5090993;28;19931;-76
2023/03/17 05:40:51;;;;;;;;;;;6.00;99.90;;;;;;5079598;28;20405;-76
2023/03/17 05:43:17;;;;;;;;;;;6.10;99.90;;;;;;5089893;28;20022;-76
2023/03/17 05:45:43;;;;;;;;;;;6.00;99.90;;;;;;5091413;28;20019;-76
2023/03/17 05:48:11;;;;;;;;;;;6.00;99.90;;;;;;5080777;28;19936;-76
2023/03/17 05:50:36;;;;;;;;;;;6.00;99.90;;;;;;5089653;28;19959;-76
2023/03/17 05:53:02;;;;;;;;;;;6.10;99.90;;;;;;5090894;28;19955;-76
2023/03/17 05:55:27;;;;;;;;;;;6.10;99.90;;;;;;5092175;28;19928;-76
2023/03/17 05:57:53;;;;;;;;;;;6.10;99.90;;;;;;5091801;28;19939;-76
2023/03/17 06:00:20;;;;;;;;;;;6.10;99.90;;;;;;5092269;28;19982;-76
2023/03/17 06:02:46;;;;;;;;;;;6.10;99.90;;;;;;5092842;28;19962;-77
2023/03/17 06:05:12;;;;;;;;;;;6.10;99.90;;;;;;5091417;28;19952;-76
2023/03/17 06:07:37;;;;;;;;;;;6.10;99.90;;;;;;5090006;28;19924;-76
2023/03/17 06:10:04;;;;;;;;;;;6.20;99.90;;;;;;5090651;28;19931;-76
2023/03/17 06:12:29;;;;;;;;;;;6.20;99.90;;;;;;5090100;28;19924;-77
2023/03/17 06:14:55;;;;;;;;;;;6.20;99.90;;;;;;5090492;28;20019;-77
2023/03/17 06:17:20;;;;;;;;;;;6.30;99.90;;;;;;5092509;28;20041;-77
2023/03/17 06:19:46;;;;;;;;;;;6.30;99.90;;;;;;5090934;28;19924;-77
2023/03/17 06:22:12;;;;;;;;;;;6.30;99.90;;;;;;5095557;28;19927;-77
2023/03/17 06:24:37;;;;;;;;;;;6.30;99.90;;;;;;5091938;28;19932;-77
2023/03/17 06:27:03;;;;;;;;;;;6.30;99.90;;;;;;5094513;28;20271;-77
2023/03/17 06:29:29;;;;;;;;;;;6.40;99.90;;;;;;5093686;28;19924;-77
2023/03/17 06:31:54;;;;;;;;;;;6.40;99.90;;;;;;5095112;28;19939;-77
2023/03/17 06:34:21;;;;;;;;;;;6.40;99.90;;;;;;5094386;28;20409;-77
2023/03/17 06:36:47;;;;;;;;;;;6.50;99.90;;;;;;5097482;28;20061;-77
2023/03/17 06:39:12;;;;;;;;;;;6.60;99.90;;;;;;5092747;28;20070;-77
2023/03/17 06:41:38;;;;;;;;;;;6.60;99.90;;;;;;5089394;28;20481;-76
2023/03/17 06:44:04;;;;;;;;;;;6.70;99.90;;;;;;5094161;28;19969;-76
2023/03/17 06:46:30;;;;;;;;;;;6.80;99.90;;;;;;5091207;28;19925;-76
2023/03/17 06:48:55;;;;;;;;;;;6.80;99.90;;;;;;5083469;28;20306;-77
2023/03/17 06:51:21;;;;;;;;;;;6.90;99.90;;;;;;5086831;28;19924;-77
2023/03/17 06:53:46;;;;;;;;;;;7.00;99.90;;;;;;5085891;28;19924;-78
2023/03/17 06:56:12;;;;;;;;;;;7.10;99.90;;;;;;5090334;28;19931;-77
2023/03/17 06:58:38;;;;;;;;;;;7.10;99.90;;;;;;5088745;28;20454;-77
2023/03/17 07:01:06;;;;;;;;;;;7.20;99.90;;;;;;5089727;28;20075;-77
2023/03/17 07:03:32;;;;;;;;;;;7.20;99.90;;;;;;5089097;28;20274;-77
2023/03/17 07:05:58;;;;;;;;;;;7.20;99.90;;;;;;5085409;28;19931;-77
2023/03/17 07:08:24;;;;;;;;;;;7.20;99.90;;;;;;5081942;28;20294;-77
2023/03/17 07:10:52;;;;;;;;;;;7.20;99.90;;;;;;5071793;28;19924;-77
2023/03/17 07:13:19;;;;;;;;;;;7.20;99.90;;;;;;5089607;28;19939;-77
2023/03/17 07:15:45;;;;;;;;;;;7.30;99.90;;;;;;5089450;28;20439;-77
2023/03/17 07:18:10;;;;;;;;;;;7.30;99.90;;;;;;5088473;28;19924;-77
2023/03/17 07:20:36;;;;;;;;;;;7.40;99.90;;;;;;5088786;28;19924;-76
2023/03/17 07:23:01;;;;;;;;;;;7.40;99.90;;;;;;5079992;28;19928;-75
2023/03/17 07:25:27;;;;;;;;;;;7.50;99.90;;;;;;5078678;28;19924;-76
2023/03/17 07:27:52;;;;;;;;;;;7.50;99.90;;;;;;5089651;28;20363;-76
2023/03/17 07:30:18;;;;;;;;;;;7.60;99.90;;;;;;5091405;28;19928;-76
2023/03/17 07:32:47;;;;;;;;;;;7.60;99.90;;;;;;5094013;28;20301;-76
2023/03/17 07:35:14;;;;;;;;;;;7.60;99.90;;;;;;5078849;28;19995;-76
2023/03/17 07:37:40;;;;;;;;;;;7.70;99.90;;;;;;5094380;28;19928;-76
2023/03/17 07:40:07;;;;;;;;;;;7.70;99.90;;;;;;5098946;28;20069;-76
2023/03/17 07:42:33;;;;;;;;;;;7.70;99.90;;;;;;5096824;28;19924;-76
2023/03/17 07:44:59;;;;;;;;;;;7.80;99.90;;;;;;5093175;28;19933;-76
2023/03/17 07:47:24;;;;;;;;;;;7.80;99.90;;;;;;5067946;28;20010;-76
2023/03/17 07:49:51;;;;;;;;;;;7.80;99.90;;;;;;5093308;28;19935;-76
2023/03/17 07:52:16;;;;;;;;;;;7.90;99.90;;;;;;5092245;28;19973;-76
2023/03/17 07:54:42;;;;;;;;;;;7.90;99.90;;;;;;5106234;28;19924;-76
2023/03/17 07:57:07;;;;;;;;;;;8.00;99.90;;;;;;5093487;28;19931;-76
2023/03/17 07:59:33;;;;;;;;;;;8.00;99.90;;;;;;5092102;28;19977;-76
2023/03/17 08:02:00;;;;;;;;;;;8.10;99.90;;;;;;5093466;28;19932;-76
2023/03/17 08:04:26;;;;;;;;;;;8.10;99.90;;;;;;5093937;28;19969;-76
2023/03/17 08:06:53;;;;;;;;;;;8.20;99.90;;;;;;5093794;28;20599;-76
2023/03/17 08:09:19;;;;;;;;;;;8.30;99.90;;;;;;5092942;28;19935;-76
2023/03/17 08:11:44;;;;;;;;;;;8.40;99.90;;;;;;5092148;28;19924;-76
2023/03/17 08:14:10;;;;;;;;;;;8.50;99.90;;;;;;5093284;28;19924;-76
2023/03/17 08:16:36;;;;;;;;;;;8.70;99.90;;;;;;5092888;28;19931;-76
2023/03/17 08:19:02;;;;;;;;;;;8.80;99.90;;;;;;5092062;28;19990;-76
2023/03/17 08:21:28;;;;;;;;;;;8.90;99.90;;;;;;5093725;28;20426;-77
2023/03/17 08:23:54;;;;;;;;;;;9.00;99.90;;;;;;5102945;28;19924;-77
2023/03/17 08:26:20;;;;;;;;;;;9.10;99.90;;;;;;5093754;28;19924;-76
2023/03/17 08:28:47;;;;;;;;;;;9.20;99.90;;;;;;5092498;28;19924;-77
2023/03/17 08:31:14;;;;;;;;;;;9.20;99.90;;;;;;5091514;28;19932;-77
2023/03/17 08:33:41;;;;;;;;;;;9.30;99.90;;;;;;5092727;28;20010;-77
2023/03/17 08:36:08;;;;;;;;;;;9.40;99.90;;;;;;5092323;28;20511;-77
2023/03/17 08:38:34;;;;;;;;;;;9.50;99.90;;;;;;5090873;28;19927;-77
2023/03/17 08:41:01;;;;;;;;;;;9.60;99.90;;;;;;5090714;28;20000;-77
2023/03/17 08:43:27;;;;;;;;;;;9.60;99.90;;;;;;5091821;28;19947;-78
2023/03/17 08:45:59;;;;;;;;;;;9.70;99.90;;;;;;5092829;28;19924;-78
2023/03/17 08:48:25;;;;;;;;;;;9.70;99.90;;;;;;5090402;28;19978;-78
2023/03/17 08:50:50;;;;;;;;;;;9.80;99.90;;;;;;5086993;28;19963;-77
2023/03/17 08:53:16;;;;;;;;;;;9.80;99.90;;;;;;5079227;28;20356;-78
2023/03/17 08:55:41;;;;;;;;;;;9.80;99.90;;;;;;5091991;28;19995;-78
2023/03/17 08:58:08;;;;;;;;;;;9.80;99.90;;;;;;5068053;28;20708;-78
2023/03/17 09:00:34;;;;;;;;;;;9.80;99.90;;;;;;5085970;28;19932;-78
2023/03/17 09:03:00;;;;;;;;;;;9.80;99.90;;;;;;5092054;28;20407;-78
2023/03/17 09:05:25;;;;;;;;;;;9.80;99.90;;;;;;5091612;28;20015;-76
2023/03/17 09:07:52;;;;;;;;;;;9.90;99.90;;;;;;5092159;28;19928;-76
2023/03/17 09:10:21;;;;;;;;;;;10.00;99.90;;;;;;5092662;28;19967;-77
2023/03/17 09:12:47;;;;;;;;;;;10.10;99.90;;;;;;5092379;28;19930;-76
2023/03/17 09:15:12;;;;;;;;;;;10.30;99.90;;;;;;5091779;28;19928;-77
2023/03/17 09:17:38;;;;;;;;;;;10.40;99.90;;;;;;5091274;28;19969;-76
2023/03/17 09:20:05;;;;;;;;;;;10.50;99.90;;;;;;5091613;28;19928;-76
2023/03/17 09:22:30;;;;;;;;;;;10.60;99.90;;;;;;5092025;28;20301;-77
2023/03/17 09:24:56;;;;;;;;;;;10.70;99.90;;;;;;5092443;28;20011;-76
2023/03/17 09:27:22;;;;;;;;;;;10.80;99.90;;;;;;5088610;28;20011;-77
2023/03/17 09:29:48;;;;;;;;;;;10.90;99.90;;;;;;5077757;28;20015;-77
2023/03/17 09:32:14;;;;;;;;;;;11.20;99.90;;;;;;5092397;28;19931;-77
2023/03/17 09:34:40;;;;;;;;;;;11.80;99.90;;;;;;5080540;28;19936;-77
2023/03/17 09:37:08;;;;;;;;;;;12.60;99.90;;;;;;5090569;28;19924;-77
2023/03/17 09:39:34;;;;;;;;;;;13.40;99.90;;;;;;5092158;28;19924;-77
2023/03/17 09:42:03;;;;;;;;;;;14.10;99.90;;;;;;5091886;28;20062;-77
2023/03/17 09:44:41;;;;;;;;;;;14.80;99.90;;;;;;5090841;28;20304;-77
2023/03/17 09:47:25;;;;;;;;;;;15.30;99.90;;;;;;5091727;28;19928;-77
2023/03/17 09:49:54;;;;;;;;;;;15.20;99.90;;;;;;5090466;28;19927;-77
2023/03/17 09:52:27;;;;;;;;;;;15.00;99.90;;;;;;5103975;28;19924;-77
2023/03/17 09:54:53;;;;;;;;;;;15.00;99.90;;;;;;5083500;28;19924;-77
2023/03/17 09:57:29;;;;;;;;;;;15.20;99.90;;;;;;5109164;28;20407;-77
2023/03/17 10:00:14;;;;;;;;;;;15.30;99.90;;;;;;5089650;28;19924;-77
2023/03/17 10:02:40;;;;;;;;;;;15.40;99.90;;;;;;5088707;28;20455;-77
2023/03/17 10:05:12;;;;;;;;;;;15.70;99.90;;;;;;5089396;28;20023;-77
2023/03/17 10:07:43;;;;;;;;;;;15.80;99.90;;;;;;5088471;28;20447;-77
2023/03/17 10:10:18;;;;;;;;;;;15.80;99.90;;;;;;5091033;28;19924;-77
2023/03/17 10:12:59;;;;;;;;;;;15.80;99.90;;;;;;5075880;28;19924;-77
2023/03/17 10:15:37;;;;;;;;;;;15.80;99.90;;;;;;5075509;28;20425;-77
2023/03/17 10:18:08;;;;;;;;;;;16.00;99.90;;;;;;5090498;28;20015;-78
2023/03/17 10:20:34;;;;;;;;;;;16.40;99.90;;;;;;5090002;28;19928;-77
2023/03/17 10:23:03;;;;;;;;;;;16.70;99.90;;;;;;5089244;28;19935;-77
2023/03/17 10:25:29;;;;;;;;;;;16.90;99.90;;;;;;5089146;28;19950;-77
2023/03/17 10:27:58;;;;;;;;;;;17.20;99.90;;;;;;5078188;28;19928;-77
2023/03/17 10:30:25;;;;;;;5.05;2.35;;;17.70;99.90;;;;;;5088713;28;19931;-78
2023/03/17 10:32:52;;;;;;;4.18;2.03;;;18.20;99.90;;;;;;5089896;28;20047;-77
2023/03/17 10:35:19;;;;;;;4.85;2.28;;;18.40;98.30;;;;;;5090848;28;20409;-78
2023/03/17 10:37:48;;;;;;;4.00;2.08;;;18.50;98.50;;;;;;5089947;28;20405;-77
2023/03/17 10:40:29;;;;;;;5.10;2.40;;;18.30;98.90;;;;;;5088967;28;20398;-77
2023/03/17 10:43:04;;;;;;;4.07;2.30;;;17.90;98.40;;;;;;5079613;28;20415;-77
2023/03/17 10:45:34;;;;;;;5.22;2.50;;;17.80;99.60;;;;;;5089385;28;20582;-77
2023/03/17 10:48:03;;;;;;;6.75;2.40;;;17.90;99.40;;;;;;5089152;28;20410;-78
2023/03/17 10:50:34;;;;;;;6.07;2.50;;;18.30;99.20;;;;;;5088058;28;20394;-77
2023/03/17 10:53:04;;;;;;;5.10;2.50;;;18.50;98.80;;;;;;5066116;28;20411;-77
2023/03/17 10:55:51;;;;;;;5.20;2.50;;;18.90;98.30;;;;;;5080930;28;20407;-77
2023/03/17 10:58:45;;;;;;;5.47;2.30;;;19.50;97.20;;;;;;5089601;28;20506;-78
2023/03/17 11:01:18;;;;;;;;;;;20.00;96.50;;;;;;5089322;28;20082;-77
2023/03/17 11:03:44;;;;;;;;;;;20.50;94.40;;;;;;5089700;28;20305;-77
2023/03/17 11:06:11;;;;;;;;;;;20.70;93.90;;;;;;5077523;28;19920;-78
2023/03/17 11:08:44;;;;;;;;;;;20.80;91.40;;;;;;5089679;28;20353;-77
2023/03/17 11:11:33;;;;;;;7.55;2.30;;;20.80;92.00;;;;;;5088309;28;19923;-78
2023/03/17 11:14:12;;;;;;;4.35;2.28;;;21.00;91.70;;;;;;5086936;28;20422;-77
2023/03/17 11:16:45;;;;;;;4.05;2.50;;;21.30;91.90;;;;;;5082059;28;20405;-77
2023/03/17 11:19:15;;;;;;;5.40;2.63;;;21.60;91.60;;;;;;5084125;28;20774;-78
2023/03/17 11:22:08;;;;;;;4.72;2.50;;;21.70;88.00;;;;;;5083735;28;20475;-77
2023/03/17 11:24:41;;;;;;;;;;;21.70;88.40;;;;;;5080713;28;20059;-78
2023/03/17 11:27:26;;;;;;;5.60;2.58;;;22.10;88.00;;;;;;5088758;28;19969;-77
2023/03/17 11:30:18;;;;;;;5.95;2.60;;;22.40;89.30;;;;;;5088886;28;20733;-78
2023/03/17 11:32:56;;;;;;;4.55;2.13;;;22.20;88.10;;;;;;5085733;28;20084;-78
2023/03/17 11:35:44;;;;;;;3.85;2.38;;;22.20;83.60;;;;;;5077068;28;20056;-78
2023/03/17 11:38:18;;;;;;;7.38;2.47;;;22.40;86.00;;;;;;5087822;28;20051;-78
2023/03/17 11:41:05;;;;;;;3.45;2.13;;;22.60;85.20;;;;;;5080959;28;20110;-78
2023/03/17 11:43:53;;;;;;;5.72;2.47;;;22.70;83.40;;;;;;5067847;28;20059;-77
2023/03/17 11:46:29;;;;;;;6.22;2.67;;;22.70;80.60;;;;;;5088241;28;20834;-78
2023/03/17 11:49:15;;;;;;;6.00;2.85;;;22.80;81.60;;;;;;5088980;28;20052;-78
2023/03/17 11:51:55;;;;;;;5.20;2.90;;;22.80;79.70;;;;;;5057762;28;20048;-78
2023/03/17 11:54:43;;;;;;;8.07;2.63;;;22.80;80.20;;;;;;5085646;28;20409;-78
2023/03/17 11:57:31;;;;;;;3.60;2.45;;;23.00;79.50;;;;;;5080233;28;20462;-78
2023/03/17 12:00:17;;;;;;;5.68;2.90;;;23.20;80.90;;;;;;5058947;28;20097;-78
2023/03/17 12:02:48;;;;;;;4.93;3.13;;;23.40;77.70;;;;;;5088317;28;20036;-78
2023/03/17 12:05:33;;;;;;;;;;;23.60;78.50;;;;;;5086996;28;20052;-78
2023/03/17 12:08:04;;;;;;;5.50;2.63;;;23.70;77.90;;;;;;5081561;28;19943;-77
2023/03/17 12:10:36;;;;;;;5.90;2.90;;;23.70;74.50;;;;;;5074388;28;20048;-77
2023/03/17 12:13:11;;;;;;;5.78;2.67;;;23.60;77.80;;;;;;5071689;28;20037;-78
2023/03/17 12:15:49;;;;;;;;;;;23.70;75.70;;;;;;5084315;28;20040;-77
2023/03/17 12:18:47;;;;;;;4.93;3.03;;;23.90;71.00;;;;;;5084683;28;19927;-78
2023/03/17 12:21:22;;;;;;;5.47;3.20;;;23.90;75.10;;;;;;5068926;28;20399;-77
2023/03/17 12:24:00;;;;;;;5.32;2.58;;;24.10;71.90;;;;;;5089681;28;20083;-77
2023/03/17 12:26:48;;;;;;;5.57;3.40;;;24.10;72.40;;;;;;5093696;28;20051;-77
2023/03/17 12:29:24;;;;;;;19.60;15.70;;;24.20;73.30;;;;;;5074046;28;20078;-77
2023/03/17 12:32:39;;;;;;;9.20;5.50;;;24.20;72.30;;;;;;5075483;28;20040;-77
2023/03/17 12:35:25;;;;;;;7.07;4.75;;;24.40;69.80;;;;;;5102422;28;20040;-76
2023/03/17 12:37:51;;;;;;;6.68;3.15;;;24.50;69.30;;;;;;5092125;28;20489;-77
2023/03/17 12:40:23;;;;;;;;;;;24.50;68.20;;;;;;5094279;28;20506;-77
2023/03/17 12:42:55;;;;;;;7.38;2.75;;;24.40;69.50;;;;;;5094663;28;19967;-77
2023/03/17 12:45:42;;;;;;;5.30;3.28;;;24.50;70.10;;;;;;5092552;28;20048;-77
2023/03/17 12:48:34;;;;;;;7.10;3.05;;;24.30;69.80;;;;;;5094497;28;20517;-78
2023/03/17 12:51:15;;;;;;;6.75;2.92;;;23.60;68.60;;;;;;5090425;28;20048;-77
2023/03/17 12:53:43;;;;;;;;;;;22.90;69.10;;;;;;5092177;28;20054;-77
2023/03/17 12:56:21;;;;;;;;;;;22.10;70.80;;;;;;5092009;28;20357;-77
2023/03/17 12:58:52;;;;;;;4.93;3.10;;;21.60;73.10;;;;;;5092108;28;19920;-77
2023/03/17 13:01:36;;;;;;;5.65;3.30;;;21.70;75.60;;;;;;5091630;28;20059;-77
2023/03/17 13:04:16;;;;;;;;;;;21.50;74.90;;;;;;5091557;28;20105;-77
2023/03/17 13:06:44;;;;;;;;;;;21.30;74.20;;;;;;5101161;28;20341;-77
2023/03/17 13:09:25;;;;;;;;;;;21.00;75.00;;;;;;5097255;28;19924;-77
2023/03/17 13:11:51;;;;;;;;;;;21.00;77.20;;;;;;5111252;28;19926;-77
2023/03/17 13:14:25;;;;;;;;;;;21.30;78.10;;;;;;5110325;28;20293;-77
2023/03/17 13:17:01;;;;;;;;;;;21.30;77.40;;;;;;5108750;28;19923;-77
2023/03/17 13:19:31;;;;;;;;;;;21.30;77.90;;;;;;5109777;28;19959;-77
2023/03/17 13:21:59;;;;;;;;;;;21.10;76.60;;;;;;5106827;28;19935;-77
2023/03/17 13:24:41;;;;;;;;;;;21.10;76.00;;;;;;5100041;28;20294;-77
2023/03/17 13:27:10;;;;;;;;;;;21.10;76.80;;;;;;5087142;28;19927;-77
2023/03/17 13:29:35;;;;;;;;;;;20.80;76.40;;;;;;5103710;28;19927;-77
2023/03/17 13:32:20;;;;;;;;;;;20.30;77.70;;;;;;5090978;28;19927;-77
2023/03/17 13:34:52;;;;;;;;;;;20.00;78.50;;;;;;5089809;28;19920;-77
2023/03/17 13:37:24;;;;;;;;;;;19.90;81.00;;;;;;5091933;28;19935;-77
2023/03/17 13:40:09;;;;;;;;;;;19.80;80.30;;;;;;5076932;28;19927;-77
2023/03/17 13:42:43;;;;;;;;;;;19.60;81.20;;;;;;5091020;28;19920;-77
2023/03/17 13:45:17;;;;;;;;;;;19.50;82.30;;;;;;5092332;28;19931;-77
2023/03/17 13:47:44;;;;;;;;;;;19.40;82.80;;;;;;5089466;28;20424;-77
2023/03/17 13:50:13;;;;;;;;;;;19.20;82.60;;;;;;5091325;28;19927;-77
2023/03/17 13:52:48;;;;;;;;;;;19.00;82.50;;;;;;5091044;28;19934;-77
2023/03/17 13:55:17;;;;;;;;;;;18.80;85.10;;;;;;5091815;28;20282;-77
2023/03/17 13:57:52;;;;;;;;;;;18.60;86.50;;;;;;5089575;28;19920;-76
2023/03/17 14:00:18;;;;;;;;;;;18.50;89.00;;;;;;5099013;28;20419;-76
2023/03/17 14:02:45;;;;;;;;;;;18.40;90.40;;;;;;5090623;28;19961;-76
2023/03/17 14:05:27;;;;;;;;;;;18.40;91.10;;;;;;5090033;28;19942;-76
2023/03/17 14:08:14;;;;;;;;;;;18.40;92.00;;;;;;5071632;28;20389;-76
2023/03/17 14:10:40;;;;;;;;;;;18.40;92.40;;;;;;5090432;28;19920;-76
2023/03/17 14:13:05;;;;;;;;;;;18.60;92.70;;;;;;5121938;27;19992;-76
2023/03/17 14:15:33;;;;;;;;;;;18.70;93.50;;;;;;5073765;28;19979;-76
2023/03/17 14:18:14;;;;;;;;;;;18.80;92.50;;;;;;5091553;28;19924;-76
2023/03/17 14:20:50;;;;;;;;;;;18.90;92.50;;;;;;5089062;28;19965;-77
2023/03/17 14:23:16;;;;;;;;;;;19.00;92.90;;;;;;5091015;28;20366;-76